createdAt,value
2019-04-16T09:35:08.073Z,14.70
2019-04-16T09:37:28.684Z,14.70
2019-04-16T09:40:16.414Z,14.90
2019-04-16T09:42:34.947Z,15.00
2019-04-16T09:46:25.017Z,15.30
2019-04-16T09:48:49.866Z,15.40
2019-04-16T09:51:18.691Z,15.70
2019-04-16T09:53:43.286Z,15.80
2019-04-16T09:56:30.027Z,16.00
2019-04-16T09:58:59.770Z,16.20
2019-04-16T10:01:27.882Z,16.30
2019-04-16T10:03:55.093Z,16.40
2019-04-16T10:06:21.363Z,16.50
2019-04-16T10:08:47.440Z,16.70
2019-04-16T10:11:18.040Z,16.80
2019-04-16T10:13:42.977Z,16.90
2019-04-16T10:16:09.393Z,16.90
2019-04-16T10:18:36.029Z,16.90
2019-04-16T10:21:02.192Z,17.00
2019-04-16T10:23:36.211Z,17.10
2019-04-16T10:26:02.791Z,17.30
2019-04-16T10:28:39.854Z,17.30
2019-04-16T10:31:06.241Z,17.40
2019-04-16T10:33:32.392Z,17.30
2019-04-16T10:36:01.094Z,17.30
2019-04-16T10:38:31.024Z,17.40
2019-04-16T10:40:59.739Z,17.50
2019-04-16T10:43:45.111Z,17.70
2019-04-16T10:46:16.296Z,17.90
2019-04-16T10:48:50.461Z,17.90
2019-04-16T10:51:19.375Z,17.90
2019-04-16T10:53:53.546Z,17.80
2019-04-16T10:56:33.804Z,17.90
2019-04-16T10:59:18.508Z,17.80
2019-04-16T11:01:46.561Z,17.90
2019-04-16T11:04:17.845Z,18.00
2019-04-16T11:06:45.907Z,17.90
2019-04-16T11:09:12.015Z,17.90
2019-04-16T11:11:38.151Z,17.90
2019-04-16T11:14:04.216Z,18.10
2019-04-16T11:16:30.558Z,18.20
2019-04-16T11:18:56.676Z,18.20
2019-04-16T11:21:22.861Z,18.30
2019-04-16T11:23:49.121Z,18.50
2019-04-16T11:26:15.378Z,18.60
2019-04-16T11:28:41.606Z,18.80
2019-04-16T11:31:12.739Z,18.80
2019-04-16T11:33:38.964Z,19.00
2019-04-16T11:36:17.389Z,19.00
2019-04-16T11:38:33.065Z,19.10
2019-04-16T11:40:59.296Z,19.20
2019-04-16T11:43:25.799Z,19.40
2019-04-16T11:45:52.129Z,19.30
2019-04-16T11:48:18.318Z,19.30
2019-04-16T11:50:44.496Z,19.40
2019-04-16T11:55:37.194Z,19.70
2019-04-16T11:58:05.240Z,19.60
2019-04-16T12:00:33.273Z,19.40
2019-04-16T12:03:01.338Z,19.30
2019-04-16T12:05:41.485Z,19.50
2019-04-16T12:08:09.665Z,19.70
2019-04-16T12:10:44.074Z,19.80
2019-04-16T12:13:12.322Z,19.80
2019-04-16T12:15:56.808Z,19.90
2019-04-16T12:18:27.620Z,19.90
2019-04-16T12:20:55.833Z,19.90
2019-04-16T12:23:23.971Z,19.90
2019-04-16T12:26:09.721Z,20.00
2019-04-16T12:28:42.331Z,20.10
2019-04-16T12:31:16.211Z,20.10
2019-04-16T12:33:43.068Z,20.20
2019-04-16T12:36:17.215Z,20.30
2019-04-16T12:38:45.302Z,20.50
2019-04-16T12:41:13.400Z,20.50
2019-04-16T12:43:41.424Z,20.40
2019-04-16T12:46:21.528Z,20.40
2019-04-16T12:48:49.668Z,20.40
2019-04-16T12:51:21.119Z,20.50
2019-04-16T12:53:53.062Z,20.60
2019-04-16T12:59:15.198Z,20.90
2019-04-16T13:01:49.461Z,21.00
2019-04-16T13:04:23.428Z,21.10
2019-04-16T13:06:54.426Z,21.20
2019-04-16T13:09:31.477Z,21.40
2019-04-16T13:12:17.861Z,21.50
2019-04-16T13:14:59.935Z,21.50
2019-04-16T13:17:24.972Z,21.40
2019-04-16T13:19:55.952Z,21.60
2019-04-16T13:22:40.593Z,21.60
2019-04-16T13:25:12.105Z,21.60
2019-04-16T13:27:39.736Z,21.50
2019-04-16T13:30:08.641Z,21.80
2019-04-16T13:32:34.852Z,22.00
2019-04-16T13:35:01.032Z,22.20
2019-04-16T18:18:09.743Z,20.10
2019-04-16T18:20:58.665Z,19.70
2019-04-16T18:23:22.036Z,19.40
2019-04-16T18:26:06.585Z,19.10
2019-04-16T18:28:34.742Z,18.80
2019-04-16T18:31:23.404Z,18.60
2019-04-16T18:33:50.898Z,18.30
2019-04-16T18:36:18.920Z,18.20
2019-04-16T18:38:47.008Z,17.90
2019-04-16T18:41:30.184Z,17.70
2019-04-16T18:44:01.047Z,17.60
2019-04-16T18:46:35.353Z,17.40
2019-04-16T18:49:14.346Z,17.20
2019-04-16T18:51:51.511Z,17.00
2019-04-16T18:54:18.110Z,16.80
2019-04-16T18:56:44.207Z,16.60
2019-04-16T18:59:11.150Z,16.50
2019-04-16T19:01:39.620Z,16.30
2019-04-16T19:04:06.735Z,16.20
2019-04-16T19:06:34.176Z,16.10
2019-04-16T19:09:00.390Z,16.10
2019-04-16T19:11:26.624Z,15.90
2019-04-16T19:13:52.710Z,15.70
2019-04-16T19:16:18.920Z,15.60
2019-04-16T19:19:07.272Z,15.50
2019-04-16T19:21:33.424Z,15.40
2019-04-16T19:24:00.716Z,15.30
2019-04-16T19:26:30.275Z,15.20
2019-04-16T19:28:55.746Z,15.00
2019-04-16T19:31:23.060Z,15.00
2019-04-16T19:33:49.998Z,14.90
2019-04-16T19:36:16.076Z,14.90
2019-04-16T19:38:42.235Z,14.80
2019-04-16T19:41:08.348Z,14.70
2019-04-16T19:43:35.549Z,14.70
2019-04-16T19:46:02.117Z,14.60
2019-04-16T19:48:35.944Z,14.50
2019-04-16T19:50:56.253Z,14.40
2019-04-16T19:53:22.325Z,14.30
2019-04-16T19:55:48.384Z,14.30
2019-04-16T19:58:14.692Z,14.20
2019-04-16T20:00:40.761Z,14.10
2019-04-16T20:03:07.147Z,14.10
2019-04-16T20:05:33.228Z,14.00
2019-04-16T20:07:59.300Z,13.90
2019-04-16T20:10:25.386Z,13.80
2019-04-16T20:12:51.533Z,13.70
2019-04-16T20:15:17.727Z,13.60
2019-04-16T20:17:43.864Z,13.50
2019-04-16T20:20:10.132Z,13.50
2019-04-16T20:22:36.292Z,13.40
2019-04-16T20:25:02.888Z,13.40
2019-04-16T20:27:28.986Z,13.30
2019-04-16T20:29:55.372Z,13.30
2019-04-16T20:32:22.020Z,13.20
2019-04-16T20:34:48.098Z,13.20
2019-04-16T20:37:14.292Z,13.10
2019-04-16T20:39:40.906Z,13.10
2019-04-16T20:42:07.143Z,13.00
2019-04-16T20:44:33.214Z,13.00
2019-04-16T20:47:03.497Z,12.90
2019-04-16T20:49:27.365Z,12.80
2019-04-16T20:51:56.540Z,12.80
2019-04-16T20:54:22.511Z,12.80
2019-04-16T20:56:50.040Z,12.70
2019-04-16T20:59:16.687Z,12.60
2019-04-16T21:01:42.887Z,12.60
2019-04-16T21:04:09.071Z,12.60
2019-04-16T21:06:40.516Z,12.40
2019-04-16T21:09:05.360Z,12.40
2019-04-16T21:11:31.451Z,12.30
2019-04-16T21:13:57.516Z,12.30
2019-04-16T21:16:23.768Z,12.30
2019-04-16T21:18:49.965Z,12.20
2019-04-16T21:21:16.033Z,12.20
2019-04-16T21:23:42.321Z,12.10
2019-04-16T21:26:08.436Z,12.00
2019-04-16T21:28:36.609Z,12.00
2019-04-16T21:31:07.795Z,12.00
2019-04-16T21:33:35.896Z,12.00
2019-04-16T21:36:05.197Z,11.90
2019-04-16T21:38:45.177Z,11.90
2019-04-16T21:41:10.992Z,11.80
2019-04-16T21:43:39.545Z,11.80
2019-04-16T21:46:05.462Z,11.70
2019-04-16T21:48:31.696Z,11.60
2019-04-16T21:50:57.791Z,11.60
2019-04-16T21:53:24.555Z,11.50
2019-04-16T21:55:52.068Z,11.50
2019-04-16T21:58:18.525Z,11.40
2019-04-16T22:00:52.850Z,11.30
2019-04-16T22:03:23.782Z,11.20
2019-04-16T22:05:49.993Z,11.20
2019-04-16T22:08:16.078Z,11.10
2019-04-16T22:10:42.186Z,11.10
2019-04-16T22:13:08.351Z,11.00
2019-04-16T22:15:34.517Z,11.00
2019-04-16T22:18:00.660Z,10.90
2019-04-16T22:20:26.754Z,10.90
2019-04-16T22:22:52.834Z,10.90
2019-04-16T22:25:18.947Z,10.90
2019-04-16T22:27:45.030Z,10.80
2019-04-16T22:30:11.324Z,10.80
2019-04-16T22:32:37.411Z,10.80
2019-04-16T22:35:04.797Z,10.70
2019-04-16T22:37:30.899Z,10.70
2019-04-16T22:40:14.000Z,10.60
2019-04-16T22:42:41.985Z,10.60
2019-04-16T22:45:26.203Z,10.50
2019-04-16T22:47:52.525Z,10.50
2019-04-16T22:50:18.624Z,10.30
2019-04-16T22:52:44.977Z,10.30
2019-04-16T22:55:12.224Z,10.20
2019-04-16T22:57:38.334Z,10.10
2019-04-16T23:00:11.746Z,10.10
2019-04-16T23:02:35.005Z,10.00
2019-04-16T23:05:01.246Z,9.90
2019-04-16T23:07:27.352Z,9.90
2019-04-16T23:09:53.632Z,9.80
2019-04-16T23:12:19.735Z,9.80
2019-04-16T23:14:45.826Z,9.80
2019-04-16T23:17:14.202Z,9.80
2019-04-16T23:19:40.115Z,9.70
2019-04-16T23:22:06.242Z,9.70
2019-04-16T23:24:32.392Z,9.70
2019-04-16T23:26:58.484Z,9.60
2019-04-16T23:29:24.586Z,9.60
2019-04-16T23:31:55.073Z,9.60
2019-04-16T23:34:18.772Z,9.50
2019-04-16T23:36:48.648Z,9.50
2019-04-16T23:39:12.854Z,9.40
2019-04-16T23:41:38.946Z,9.30
2019-04-16T23:44:13.129Z,9.30
2019-04-16T23:46:56.247Z,9.20
2019-04-16T23:49:42.455Z,9.10
2019-04-16T23:52:10.623Z,9.10
2019-04-16T23:54:44.051Z,9.00
2019-04-16T23:57:11.029Z,9.00
2019-04-16T23:59:42.037Z,9.00
